sensor_id;sensor_type;location;lat;lon;timestamp;P1;durP1;ratioP1;P2;durP2;ratioP2
57609;SDS011;43435;46.186;9.024;2022-07-30T00:01:01;4.75;;;1.40;;
57609;SDS011;43435;46.186;9.024;2022-07-30T00:03:29;3.95;;;1.10;;
57609;SDS011;43435;46.186;9.024;2022-07-30T00:05:55;2.30;;;1.50;;
57609;SDS011;43435;46.186;9.024;2022-07-30T00:08:21;3.85;;;1.50;;
57609;SDS011;43435;46.186;9.024;2022-07-30T00:10:46;4.47;;;1.17;;
57609;SDS011;43435;46.186;9.024;2022-07-30T00:13:11;2.67;;;1.43;;
57609;SDS011;43435;46.186;9.024;2022-07-30T00:15:36;2.33;;;1.08;;
57609;SDS011;43435;46.186;9.024;2022-07-30T00:18:01;1.83;;;1.10;;
57609;SDS011;43435;46.186;9.024;2022-07-30T00:20:27;1.63;;;1.10;;
57609;SDS011;43435;46.186;9.024;2022-07-30T00:22:52;1.13;;;0.80;;
57609;SDS011;43435;46.186;9.024;2022-07-30T00:25:17;1.27;;;0.90;;
57609;SDS011;43435;46.186;9.024;2022-07-30T00:27:43;3.55;;;1.00;;
57609;SDS011;43435;46.186;9.024;2022-07-30T00:30:09;2.13;;;1.00;;
57609;SDS011;43435;46.186;9.024;2022-07-30T00:32:34;2.35;;;1.05;;
57609;SDS011;43435;46.186;9.024;2022-07-30T00:35:00;1.77;;;1.00;;
57609;SDS011;43435;46.186;9.024;2022-07-30T00:37:25;2.53;;;1.00;;
57609;SDS011;43435;46.186;9.024;2022-07-30T00:39:50;2.67;;;1.00;;
57609;SDS011;43435;46.186;9.024;2022-07-30T00:42:15;1.93;;;1.13;;
57609;SDS011;43435;46.186;9.024;2022-07-30T00:44:44;0.98;;;0.85;;
57609;SDS011;43435;46.186;9.024;2022-07-30T00:47:09;2.93;;;1.10;;
57609;SDS011;43435;46.186;9.024;2022-07-30T00:49:34;1.47;;;0.97;;
57609;SDS011;43435;46.186;9.024;2022-07-30T00:52:00;3.10;;;1.50;;
57609;SDS011;43435;46.186;9.024;2022-07-30T00:54:25;1.60;;;1.00;;
57609;SDS011;43435;46.186;9.024;2022-07-30T00:56:50;2.97;;;0.90;;
57609;SDS011;43435;46.186;9.024;2022-07-30T00:59:15;1.42;;;0.88;;
57609;SDS011;43435;46.186;9.024;2022-07-30T01:01:41;2.80;;;0.90;;
57609;SDS011;43435;46.186;9.024;2022-07-30T01:04:06;3.42;;;0.90;;
57609;SDS011;43435;46.186;9.024;2022-07-30T01:06:36;3.20;;;0.95;;
57609;SDS011;43435;46.186;9.024;2022-07-30T01:09:01;3.28;;;1.00;;
57609;SDS011;43435;46.186;9.024;2022-07-30T01:11:27;1.13;;;0.70;;
57609;SDS011;43435;46.186;9.024;2022-07-30T01:13:55;1.38;;;0.85;;
57609;SDS011;43435;46.186;9.024;2022-07-30T01:16:20;3.20;;;1.00;;
57609;SDS011;43435;46.186;9.024;2022-07-30T01:18:46;1.90;;;1.00;;
57609;SDS011;43435;46.186;9.024;2022-07-30T01:21:31;1.80;;;0.70;;
57609;SDS011;43435;46.186;9.024;2022-07-30T01:23:59;2.53;;;1.10;;
57609;SDS011;43435;46.186;9.024;2022-07-30T01:26:26;2.85;;;1.02;;
57609;SDS011;43435;46.186;9.024;2022-07-30T01:28:52;1.50;;;1.02;;
57609;SDS011;43435;46.186;9.024;2022-07-30T01:31:18;1.10;;;0.85;;
57609;SDS011;43435;46.186;9.024;2022-07-30T01:33:44;2.10;;;1.17;;
57609;SDS011;43435;46.186;9.024;2022-07-30T01:36:11;3.03;;;0.80;;
57609;SDS011;43435;46.186;9.024;2022-07-30T01:38:38;1.95;;;0.90;;
57609;SDS011;43435;46.186;9.024;2022-07-30T01:41:04;2.08;;;0.98;;
57609;SDS011;43435;46.186;9.024;2022-07-30T01:43:30;1.77;;;0.73;;
57609;SDS011;43435;46.186;9.024;2022-07-30T01:45:56;3.38;;;1.00;;
57609;SDS011;43435;46.186;9.024;2022-07-30T01:48:22;1.95;;;0.88;;
57609;SDS011;43435;46.186;9.024;2022-07-30T01:50:49;1.48;;;0.90;;
57609;SDS011;43435;46.186;9.024;2022-07-30T01:53:18;1.65;;;0.80;;
57609;SDS011;43435;46.186;9.024;2022-07-30T01:55:44;3.95;;;0.85;;
57609;SDS011;43435;46.186;9.024;2022-07-30T01:58:10;1.40;;;0.90;;
57609;SDS011;43435;46.186;9.024;2022-07-30T02:00:37;1.48;;;0.90;;
57609;SDS011;43435;46.186;9.024;2022-07-30T02:03:03;1.55;;;1.00;;
57609;SDS011;43435;46.186;9.024;2022-07-30T02:05:29;2.15;;;1.00;;
57609;SDS011;43435;46.186;9.024;2022-07-30T02:08:00;1.92;;;1.13;;
57609;SDS011;43435;46.186;9.024;2022-07-30T02:13:05;2.08;;;1.05;;
57609;SDS011;43435;46.186;9.024;2022-07-30T02:15:32;2.05;;;1.10;;
57609;SDS011;43435;46.186;9.024;2022-07-30T02:20:46;2.63;;;0.90;;
57609;SDS011;43435;46.186;9.024;2022-07-30T02:23:13;2.60;;;0.90;;
57609;SDS011;43435;46.186;9.024;2022-07-30T02:25:40;4.93;;;1.40;;
57609;SDS011;43435;46.186;9.024;2022-07-30T02:28:07;1.33;;;0.80;;
57609;SDS011;43435;46.186;9.024;2022-07-30T02:30:33;1.17;;;0.80;;
57609;SDS011;43435;46.186;9.024;2022-07-30T02:33:01;2.15;;;1.00;;
57609;SDS011;43435;46.186;9.024;2022-07-30T02:35:27;2.28;;;0.80;;
57609;SDS011;43435;46.186;9.024;2022-07-30T02:37:53;1.75;;;0.90;;
57609;SDS011;43435;46.186;9.024;2022-07-30T02:40:19;1.57;;;0.80;;
57609;SDS011;43435;46.186;9.024;2022-07-30T02:42:46;1.40;;;0.98;;
57609;SDS011;43435;46.186;9.024;2022-07-30T02:45:11;1.20;;;0.90;;
57609;SDS011;43435;46.186;9.024;2022-07-30T02:47:37;1.98;;;1.00;;
57609;SDS011;43435;46.186;9.024;2022-07-30T02:50:03;1.75;;;0.90;;
57609;SDS011;43435;46.186;9.024;2022-07-30T02:52:29;1.50;;;0.95;;
57609;SDS011;43435;46.186;9.024;2022-07-30T02:54:56;2.63;;;1.00;;
57609;SDS011;43435;46.186;9.024;2022-07-30T02:57:23;1.95;;;1.00;;
57609;SDS011;43435;46.186;9.024;2022-07-30T02:59:48;1.77;;;0.93;;
57609;SDS011;43435;46.186;9.024;2022-07-30T03:02:14;2.30;;;1.13;;
57609;SDS011;43435;46.186;9.024;2022-07-30T03:04:41;2.05;;;0.98;;
57609;SDS011;43435;46.186;9.024;2022-07-30T03:07:07;1.60;;;0.73;;
57609;SDS011;43435;46.186;9.024;2022-07-30T03:09:32;3.78;;;1.00;;
57609;SDS011;43435;46.186;9.024;2022-07-30T03:11:58;3.97;;;1.02;;
57609;SDS011;43435;46.186;9.024;2022-07-30T03:14:23;1.95;;;1.10;;
57609;SDS011;43435;46.186;9.024;2022-07-30T03:16:57;1.67;;;1.20;;
57609;SDS011;43435;46.186;9.024;2022-07-30T03:19:24;2.43;;;1.43;;
57609;SDS011;43435;46.186;9.024;2022-07-30T03:21:49;6.25;;;1.00;;
57609;SDS011;43435;46.186;9.024;2022-07-30T03:24:16;3.50;;;1.10;;
57609;SDS011;43435;46.186;9.024;2022-07-30T03:26:42;1.52;;;1.08;;
57609;SDS011;43435;46.186;9.024;2022-07-30T03:29:08;2.17;;;1.00;;
57609;SDS011;43435;46.186;9.024;2022-07-30T03:31:34;1.55;;;0.90;;
57609;SDS011;43435;46.186;9.024;2022-07-30T03:34:00;2.25;;;1.00;;
57609;SDS011;43435;46.186;9.024;2022-07-30T03:36:26;3.38;;;1.23;;
57609;SDS011;43435;46.186;9.024;2022-07-30T03:38:51;1.58;;;0.80;;
57609;SDS011;43435;46.186;9.024;2022-07-30T03:41:16;3.33;;;1.40;;
57609;SDS011;43435;46.186;9.024;2022-07-30T03:43:42;3.23;;;1.20;;
57609;SDS011;43435;46.186;9.024;2022-07-30T03:46:08;2.75;;;1.13;;
57609;SDS011;43435;46.186;9.024;2022-07-30T03:48:33;5.60;;;1.00;;
57609;SDS011;43435;46.186;9.024;2022-07-30T03:51:00;2.92;;;1.15;;
57609;SDS011;43435;46.186;9.024;2022-07-30T03:53:27;1.67;;;0.93;;
57609;SDS011;43435;46.186;9.024;2022-07-30T03:55:52;2.40;;;1.05;;
57609;SDS011;43435;46.186;9.024;2022-07-30T03:58:18;2.88;;;1.00;;
57609;SDS011;43435;46.186;9.024;2022-07-30T04:00:45;3.00;;;1.20;;
57609;SDS011;43435;46.186;9.024;2022-07-30T04:03:11;2.08;;;1.30;;
57609;SDS011;43435;46.186;9.024;2022-07-30T04:05:36;2.47;;;0.90;;
57609;SDS011;43435;46.186;9.024;2022-07-30T04:08:01;1.37;;;0.90;;
57609;SDS011;43435;46.186;9.024;2022-07-30T04:10:27;4.20;;;1.05;;
57609;SDS011;43435;46.186;9.024;2022-07-30T04:12:52;2.50;;;1.40;;
57609;SDS011;43435;46.186;9.024;2022-07-30T04:15:17;2.87;;;1.13;;
57609;SDS011;43435;46.186;9.024;2022-07-30T04:17:43;1.53;;;0.90;;
57609;SDS011;43435;46.186;9.024;2022-07-30T04:20:11;3.65;;;1.10;;
57609;SDS011;43435;46.186;9.024;2022-07-30T04:22:37;4.40;;;1.05;;
57609;SDS011;43435;46.186;9.024;2022-07-30T04:25:04;1.45;;;1.00;;
57609;SDS011;43435;46.186;9.024;2022-07-30T04:27:31;2.92;;;1.10;;
57609;SDS011;43435;46.186;9.024;2022-07-30T04:29:56;2.13;;;1.20;;
57609;SDS011;43435;46.186;9.024;2022-07-30T04:32:22;2.37;;;1.10;;
57609;SDS011;43435;46.186;9.024;2022-07-30T04:34:47;2.35;;;1.25;;
57609;SDS011;43435;46.186;9.024;2022-07-30T04:37:16;2.08;;;1.23;;
57609;SDS011;43435;46.186;9.024;2022-07-30T04:39:42;3.67;;;1.10;;
57609;SDS011;43435;46.186;9.024;2022-07-30T04:42:08;2.08;;;1.20;;
57609;SDS011;43435;46.186;9.024;2022-07-30T04:44:33;2.58;;;1.58;;
57609;SDS011;43435;46.186;9.024;2022-07-30T04:46:58;5.73;;;1.30;;
57609;SDS011;43435;46.186;9.024;2022-07-30T04:49:23;3.17;;;1.30;;
57609;SDS011;43435;46.186;9.024;2022-07-30T04:51:49;1.10;;;0.88;;
57609;SDS011;43435;46.186;9.024;2022-07-30T04:54:14;2.42;;;1.60;;
57609;SDS011;43435;46.186;9.024;2022-07-30T04:56:40;1.90;;;1.20;;
57609;SDS011;43435;46.186;9.024;2022-07-30T04:59:05;4.25;;;1.30;;
57609;SDS011;43435;46.186;9.024;2022-07-30T05:01:33;4.47;;;1.20;;
57609;SDS011;43435;46.186;9.024;2022-07-30T05:03:58;5.35;;;1.13;;
57609;SDS011;43435;46.186;9.024;2022-07-30T05:06:24;5.45;;;1.17;;
57609;SDS011;43435;46.186;9.024;2022-07-30T05:08:50;4.53;;;2.38;;
57609;SDS011;43435;46.186;9.024;2022-07-30T05:11:15;3.58;;;1.35;;
57609;SDS011;43435;46.186;9.024;2022-07-30T05:13:41;1.17;;;1.00;;
57609;SDS011;43435;46.186;9.024;2022-07-30T05:16:07;2.10;;;1.15;;
57609;SDS011;43435;46.186;9.024;2022-07-30T05:18:32;2.10;;;1.10;;
57609;SDS011;43435;46.186;9.024;2022-07-30T05:20:57;2.75;;;0.90;;
57609;SDS011;43435;46.186;9.024;2022-07-30T05:23:23;2.70;;;1.38;;
57609;SDS011;43435;46.186;9.024;2022-07-30T05:25:48;3.00;;;1.50;;
57609;SDS011;43435;46.186;9.024;2022-07-30T05:28:13;2.30;;;1.50;;
57609;SDS011;43435;46.186;9.024;2022-07-30T05:30:38;1.50;;;1.10;;
57609;SDS011;43435;46.186;9.024;2022-07-30T05:33:04;2.77;;;1.43;;
57609;SDS011;43435;46.186;9.024;2022-07-30T05:35:29;2.43;;;1.20;;
57609;SDS011;43435;46.186;9.024;2022-07-30T05:37:54;3.90;;;1.40;;
57609;SDS011;43435;46.186;9.024;2022-07-30T05:40:19;2.40;;;1.30;;
57609;SDS011;43435;46.186;9.024;2022-07-30T05:42:46;2.78;;;1.40;;
57609;SDS011;43435;46.186;9.024;2022-07-30T05:45:11;3.27;;;1.37;;
57609;SDS011;43435;46.186;9.024;2022-07-30T05:47:36;1.80;;;1.40;;
57609;SDS011;43435;46.186;9.024;2022-07-30T05:50:01;2.70;;;1.50;;
57609;SDS011;43435;46.186;9.024;2022-07-30T05:52:26;6.10;;;2.22;;
57609;SDS011;43435;46.186;9.024;2022-07-30T05:54:52;4.35;;;2.00;;
57609;SDS011;43435;46.186;9.024;2022-07-30T05:57:18;3.20;;;1.70;;
57609;SDS011;43435;46.186;9.024;2022-07-30T05:59:43;3.73;;;1.67;;
57609;SDS011;43435;46.186;9.024;2022-07-30T06:02:08;5.38;;;1.65;;
57609;SDS011;43435;46.186;9.024;2022-07-30T06:04:33;1.60;;;1.07;;
57609;SDS011;43435;46.186;9.024;2022-07-30T06:06:59;2.75;;;1.63;;
57609;SDS011;43435;46.186;9.024;2022-07-30T06:09:24;2.23;;;1.37;;
57609;SDS011;43435;46.186;9.024;2022-07-30T06:11:49;2.50;;;1.30;;
57609;SDS011;43435;46.186;9.024;2022-07-30T06:14:14;3.37;;;1.30;;
57609;SDS011;43435;46.186;9.024;2022-07-30T06:16:40;3.03;;;1.40;;
57609;SDS011;43435;46.186;9.024;2022-07-30T06:19:05;2.70;;;1.53;;
57609;SDS011;43435;46.186;9.024;2022-07-30T06:21:30;2.80;;;1.60;;
57609;SDS011;43435;46.186;9.024;2022-07-30T06:23:55;2.60;;;1.60;;
57609;SDS011;43435;46.186;9.024;2022-07-30T06:26:21;5.17;;;1.40;;
57609;SDS011;43435;46.186;9.024;2022-07-30T06:28:46;2.27;;;1.47;;
57609;SDS011;43435;46.186;9.024;2022-07-30T06:31:11;2.83;;;1.60;;
57609;SDS011;43435;46.186;9.024;2022-07-30T06:33:36;8.00;;;1.97;;
57609;SDS011;43435;46.186;9.024;2022-07-30T06:36:02;1.70;;;1.20;;
57609;SDS011;43435;46.186;9.024;2022-07-30T06:38:27;2.58;;;1.27;;
57609;SDS011;43435;46.186;9.024;2022-07-30T06:40:53;3.43;;;1.43;;
57609;SDS011;43435;46.186;9.024;2022-07-30T06:43:18;5.53;;;1.42;;
57609;SDS011;43435;46.186;9.024;2022-07-30T06:45:45;1.80;;;1.17;;
57609;SDS011;43435;46.186;9.024;2022-07-30T06:48:10;3.47;;;1.17;;
57609;SDS011;43435;46.186;9.024;2022-07-30T06:50:35;3.83;;;1.30;;
57609;SDS011;43435;46.186;9.024;2022-07-30T06:53:01;4.07;;;1.40;;
57609;SDS011;43435;46.186;9.024;2022-07-30T06:55:26;2.50;;;1.40;;
57609;SDS011;43435;46.186;9.024;2022-07-30T06:57:51;1.77;;;1.30;;
57609;SDS011;43435;46.186;9.024;2022-07-30T07:00:16;2.33;;;1.42;;
57609;SDS011;43435;46.186;9.024;2022-07-30T07:02:42;3.50;;;1.55;;
57609;SDS011;43435;46.186;9.024;2022-07-30T07:05:07;1.52;;;1.20;;
57609;SDS011;43435;46.186;9.024;2022-07-30T07:07:33;2.67;;;1.42;;
57609;SDS011;43435;46.186;9.024;2022-07-30T08:28:45;3.28;;;1.30;;
57609;SDS011;43435;46.186;9.024;2022-07-30T08:31:10;2.08;;;1.35;;
57609;SDS011;43435;46.186;9.024;2022-07-30T08:33:36;2.50;;;1.13;;
57609;SDS011;43435;46.186;9.024;2022-07-30T08:36:01;2.53;;;1.30;;
57609;SDS011;43435;46.186;9.024;2022-07-30T08:38:26;2.43;;;1.53;;
57609;SDS011;43435;46.186;9.024;2022-07-30T08:40:53;2.90;;;1.40;;
57609;SDS011;43435;46.186;9.024;2022-07-30T08:43:19;1.90;;;1.25;;
57609;SDS011;43435;46.186;9.024;2022-07-30T08:45:44;2.85;;;1.00;;
57609;SDS011;43435;46.186;9.024;2022-07-30T08:48:10;2.95;;;1.20;;
57609;SDS011;43435;46.186;9.024;2022-07-30T08:50:37;3.75;;;1.73;;
57609;SDS011;43435;46.186;9.024;2022-07-30T08:53:03;1.85;;;1.10;;
57609;SDS011;43435;46.186;9.024;2022-07-30T08:55:28;1.48;;;1.20;;
57609;SDS011;43435;46.186;9.024;2022-07-30T08:57:54;1.63;;;1.10;;
57609;SDS011;43435;46.186;9.024;2022-07-30T09:00:19;1.92;;;1.25;;
57609;SDS011;43435;46.186;9.024;2022-07-30T09:02:45;2.90;;;1.40;;
57609;SDS011;43435;46.186;9.024;2022-07-30T09:05:10;1.85;;;1.23;;
57609;SDS011;43435;46.186;9.024;2022-07-30T09:07:36;2.90;;;1.35;;
57609;SDS011;43435;46.186;9.024;2022-07-30T09:10:03;2.58;;;1.30;;
57609;SDS011;43435;46.186;9.024;2022-07-30T09:15:00;1.42;;;1.00;;
57609;SDS011;43435;46.186;9.024;2022-07-30T09:17:25;3.15;;;1.17;;
57609;SDS011;43435;46.186;9.024;2022-07-30T09:20:00;1.75;;;1.00;;
57609;SDS011;43435;46.186;9.024;2022-07-30T09:22:38;1.48;;;0.90;;
57609;SDS011;43435;46.186;9.024;2022-07-30T09:25:05;2.28;;;0.90;;
57609;SDS011;43435;46.186;9.024;2022-07-30T09:27:42;2.33;;;0.88;;
57609;SDS011;43435;46.186;9.024;2022-07-30T09:30:07;1.05;;;0.80;;
57609;SDS011;43435;46.186;9.024;2022-07-30T09:32:49;1.40;;;0.80;;
57609;SDS011;43435;46.186;9.024;2022-07-30T09:35:15;1.25;;;0.98;;
57609;SDS011;43435;46.186;9.024;2022-07-30T09:37:40;1.52;;;0.90;;
57609;SDS011;43435;46.186;9.024;2022-07-30T09:40:12;1.10;;;0.80;;
57609;SDS011;43435;46.186;9.024;2022-07-30T09:42:37;1.48;;;0.70;;
57609;SDS011;43435;46.186;9.024;2022-07-30T09:45:04;0.98;;;0.80;;
57609;SDS011;43435;46.186;9.024;2022-07-30T09:47:30;1.27;;;0.80;;
57609;SDS011;43435;46.186;9.024;2022-07-30T09:52:27;2.58;;;0.90;;
57609;SDS011;43435;46.186;9.024;2022-07-30T09:54:53;1.27;;;0.75;;
57609;SDS011;43435;46.186;9.024;2022-07-30T09:57:18;1.00;;;0.80;;
57609;SDS011;43435;46.186;9.024;2022-07-30T09:59:43;2.05;;;0.68;;
57609;SDS011;43435;46.186;9.024;2022-07-30T10:02:08;1.23;;;0.90;;
57609;SDS011;43435;46.186;9.024;2022-07-30T10:04:34;1.38;;;0.80;;
57609;SDS011;43435;46.186;9.024;2022-07-30T10:06:59;3.78;;;1.00;;
57609;SDS011;43435;46.186;9.024;2022-07-30T10:09:34;2.00;;;1.00;;
57609;SDS011;43435;46.186;9.024;2022-07-30T10:14:27;1.40;;;1.00;;
57609;SDS011;43435;46.186;9.024;2022-07-30T10:16:53;1.10;;;0.70;;
57609;SDS011;43435;46.186;9.024;2022-07-30T10:19:18;3.67;;;0.87;;
57609;SDS011;43435;46.186;9.024;2022-07-30T10:21:44;2.30;;;0.70;;
57609;SDS011;43435;46.186;9.024;2022-07-30T10:24:09;1.80;;;0.90;;
57609;SDS011;43435;46.186;9.024;2022-07-30T10:26:34;2.05;;;0.90;;
57609;SDS011;43435;46.186;9.024;2022-07-30T10:29:00;1.10;;;0.80;;
57609;SDS011;43435;46.186;9.024;2022-07-30T10:31:25;1.63;;;0.77;;
57609;SDS011;43435;46.186;9.024;2022-07-30T10:33:50;1.10;;;0.80;;
57609;SDS011;43435;46.186;9.024;2022-07-30T10:36:16;2.47;;;0.90;;
57609;SDS011;43435;46.186;9.024;2022-07-30T10:38:42;1.65;;;0.70;;
57609;SDS011;43435;46.186;9.024;2022-07-30T10:49:20;1.30;;;0.80;;
57609;SDS011;43435;46.186;9.024;2022-07-30T10:51:46;1.30;;;0.90;;
57609;SDS011;43435;46.186;9.024;2022-07-30T11:02:13;1.93;;;1.00;;
57609;SDS011;43435;46.186;9.024;2022-07-30T11:04:39;2.45;;;0.90;;
57609;SDS011;43435;46.186;9.024;2022-07-30T11:09:58;3.55;;;0.90;;
57609;SDS011;43435;46.186;9.024;2022-07-30T11:15:14;2.13;;;0.82;;
57609;SDS011;43435;46.186;9.024;2022-07-30T11:17:59;1.67;;;0.93;;
57609;SDS011;43435;46.186;9.024;2022-07-30T11:20:25;2.50;;;0.70;;
57609;SDS011;43435;46.186;9.024;2022-07-30T11:22:50;1.30;;;0.93;;
57609;SDS011;43435;46.186;9.024;2022-07-30T11:27:51;1.92;;;0.80;;
57609;SDS011;43435;46.186;9.024;2022-07-30T11:32:43;1.30;;;0.88;;
57609;SDS011;43435;46.186;9.024;2022-07-30T11:40:26;2.85;;;0.80;;
57609;SDS011;43435;46.186;9.024;2022-07-30T11:43:13;1.75;;;0.80;;
57609;SDS011;43435;46.186;9.024;2022-07-30T11:48:06;1.95;;;0.88;;
57609;SDS011;43435;46.186;9.024;2022-07-30T11:50:33;1.15;;;0.77;;
57609;SDS011;43435;46.186;9.024;2022-07-30T11:53:00;1.30;;;1.00;;
57609;SDS011;43435;46.186;9.024;2022-07-30T11:55:29;2.17;;;0.90;;
57609;SDS011;43435;46.186;9.024;2022-07-30T11:57:55;1.65;;;0.82;;
57609;SDS011;43435;46.186;9.024;2022-07-30T12:00:21;1.95;;;0.90;;
57609;SDS011;43435;46.186;9.024;2022-07-30T12:02:46;1.23;;;0.65;;
57609;SDS011;43435;46.186;9.024;2022-07-30T12:05:12;1.98;;;0.70;;
57609;SDS011;43435;46.186;9.024;2022-07-30T18:14:44;1.33;;;0.70;;
57609;SDS011;43435;46.186;9.024;2022-07-30T18:17:09;3.80;;;0.90;;
57609;SDS011;43435;46.186;9.024;2022-07-30T18:19:35;1.67;;;0.97;;
57609;SDS011;43435;46.186;9.024;2022-07-30T18:22:00;0.87;;;0.60;;
57609;SDS011;43435;46.186;9.024;2022-07-30T18:24:25;0.90;;;0.70;;
57609;SDS011;43435;46.186;9.024;2022-07-30T18:26:50;2.63;;;0.85;;
57609;SDS011;43435;46.186;9.024;2022-07-30T18:29:16;1.20;;;0.80;;
57609;SDS011;43435;46.186;9.024;2022-07-30T18:31:41;2.97;;;0.80;;
57609;SDS011;43435;46.186;9.024;2022-07-30T18:34:06;1.37;;;0.77;;
57609;SDS011;43435;46.186;9.024;2022-07-30T18:36:31;4.57;;;0.80;;
57609;SDS011;43435;46.186;9.024;2022-07-30T18:38:56;1.17;;;0.77;;
57609;SDS011;43435;46.186;9.024;2022-07-30T18:41:22;1.70;;;0.80;;
57609;SDS011;43435;46.186;9.024;2022-07-30T18:43:47;2.53;;;0.70;;
57609;SDS011;43435;46.186;9.024;2022-07-30T18:46:12;1.07;;;0.73;;
57609;SDS011;43435;46.186;9.024;2022-07-30T18:48:38;1.80;;;1.00;;
57609;SDS011;43435;46.186;9.024;2022-07-30T18:51:03;2.23;;;0.67;;
57609;SDS011;43435;46.186;9.024;2022-07-30T18:53:28;1.57;;;0.90;;
57609;SDS011;43435;46.186;9.024;2022-07-30T18:55:53;1.10;;;0.70;;
57609;SDS011;43435;46.186;9.024;2022-07-30T18:58:19;2.78;;;0.90;;
57609;SDS011;43435;46.186;9.024;2022-07-30T19:00:45;1.00;;;0.70;;
57609;SDS011;43435;46.186;9.024;2022-07-30T19:03:10;0.93;;;0.60;;
57609;SDS011;43435;46.186;9.024;2022-07-30T19:05:36;2.22;;;0.80;;
57609;SDS011;43435;46.186;9.024;2022-07-30T19:08:01;1.02;;;0.70;;
57609;SDS011;43435;46.186;9.024;2022-07-30T19:10:26;1.67;;;0.67;;
57609;SDS011;43435;46.186;9.024;2022-07-30T19:12:52;0.70;;;0.50;;
57609;SDS011;43435;46.186;9.024;2022-07-30T19:15:17;3.00;;;0.90;;
57609;SDS011;43435;46.186;9.024;2022-07-30T19:17:42;1.33;;;0.90;;
57609;SDS011;43435;46.186;9.024;2022-07-30T19:20:08;1.95;;;0.90;;
57609;SDS011;43435;46.186;9.024;2022-07-30T19:22:33;1.20;;;0.80;;
57609;SDS011;43435;46.186;9.024;2022-07-30T19:24:59;1.30;;;1.03;;
57609;SDS011;43435;46.186;9.024;2022-07-30T19:27:24;1.60;;;0.87;;
57609;SDS011;43435;46.186;9.024;2022-07-30T19:29:49;1.30;;;0.87;;
57609;SDS011;43435;46.186;9.024;2022-07-30T19:32:14;0.97;;;0.67;;
57609;SDS011;43435;46.186;9.024;2022-07-30T19:34:39;2.23;;;0.80;;
57609;SDS011;43435;46.186;9.024;2022-07-30T19:37:07;1.48;;;0.80;;
57609;SDS011;43435;46.186;9.024;2022-07-30T19:39:32;3.37;;;0.70;;
57609;SDS011;43435;46.186;9.024;2022-07-30T19:41:57;1.30;;;0.70;;
57609;SDS011;43435;46.186;9.024;2022-07-30T19:44:23;2.35;;;0.90;;
57609;SDS011;43435;46.186;9.024;2022-07-30T19:46:48;1.73;;;0.90;;
57609;SDS011;43435;46.186;9.024;2022-07-30T19:49:13;1.30;;;0.90;;
57609;SDS011;43435;46.186;9.024;2022-07-30T19:51:39;3.60;;;0.80;;
57609;SDS011;43435;46.186;9.024;2022-07-30T19:54:04;2.10;;;0.88;;
57609;SDS011;43435;46.186;9.024;2022-07-30T19:56:29;1.80;;;0.85;;
57609;SDS011;43435;46.186;9.024;2022-07-30T19:58:55;1.47;;;1.00;;
57609;SDS011;43435;46.186;9.024;2022-07-30T20:01:20;1.48;;;0.85;;
57609;SDS011;43435;46.186;9.024;2022-07-30T20:03:45;1.20;;;0.90;;
57609;SDS011;43435;46.186;9.024;2022-07-30T20:06:11;2.23;;;1.37;;
57609;SDS011;43435;46.186;9.024;2022-07-30T20:08:36;1.50;;;0.90;;
57609;SDS011;43435;46.186;9.024;2022-07-30T20:11:04;1.80;;;0.93;;
57609;SDS011;43435;46.186;9.024;2022-07-30T20:13:32;1.10;;;0.80;;
57609;SDS011;43435;46.186;9.024;2022-07-30T20:15:57;2.17;;;0.90;;
57609;SDS011;43435;46.186;9.024;2022-07-30T20:18:23;1.43;;;0.90;;
57609;SDS011;43435;46.186;9.024;2022-07-30T20:20:49;1.00;;;0.90;;
57609;SDS011;43435;46.186;9.024;2022-07-30T20:23:15;1.13;;;0.60;;
57609;SDS011;43435;46.186;9.024;2022-07-30T20:25:40;6.50;;;0.97;;
57609;SDS011;43435;46.186;9.024;2022-07-30T20:28:06;1.77;;;0.93;;
57609;SDS011;43435;46.186;9.024;2022-07-30T20:30:32;0.90;;;0.70;;
57609;SDS011;43435;46.186;9.024;2022-07-30T20:32:57;1.90;;;1.02;;
57609;SDS011;43435;46.186;9.024;2022-07-30T20:35:22;1.33;;;0.80;;
57609;SDS011;43435;46.186;9.024;2022-07-30T20:37:47;4.90;;;1.20;;
57609;SDS011;43435;46.186;9.024;2022-07-30T20:40:13;1.60;;;0.80;;
57609;SDS011;43435;46.186;9.024;2022-07-30T20:42:39;2.58;;;0.85;;
57609;SDS011;43435;46.186;9.024;2022-07-30T20:45:06;1.27;;;0.82;;
57609;SDS011;43435;46.186;9.024;2022-07-30T20:47:32;1.90;;;0.70;;
57609;SDS011;43435;46.186;9.024;2022-07-30T20:49:57;2.13;;;0.83;;
57609;SDS011;43435;46.186;9.024;2022-07-30T20:52:22;2.13;;;1.40;;
57609;SDS011;43435;46.186;9.024;2022-07-30T20:54:47;1.40;;;1.10;;
57609;SDS011;43435;46.186;9.024;2022-07-30T20:57:13;1.03;;;0.80;;
57609;SDS011;43435;46.186;9.024;2022-07-30T20:59:38;1.63;;;1.03;;
57609;SDS011;43435;46.186;9.024;2022-07-30T21:02:05;1.98;;;0.82;;
57609;SDS011;43435;46.186;9.024;2022-07-30T21:04:30;2.22;;;0.82;;
57609;SDS011;43435;46.186;9.024;2022-07-30T21:06:55;1.25;;;0.80;;
57609;SDS011;43435;46.186;9.024;2022-07-30T21:09:20;1.90;;;0.87;;
57609;SDS011;43435;46.186;9.024;2022-07-30T21:11:46;3.23;;;1.00;;
57609;SDS011;43435;46.186;9.024;2022-07-30T21:14:11;1.42;;;0.93;;
57609;SDS011;43435;46.186;9.024;2022-07-30T21:16:37;1.33;;;1.00;;
57609;SDS011;43435;46.186;9.024;2022-07-30T21:19:03;1.30;;;0.80;;
57609;SDS011;43435;46.186;9.024;2022-07-30T21:21:28;1.60;;;1.10;;
57609;SDS011;43435;46.186;9.024;2022-07-30T21:23:54;2.78;;;1.20;;
57609;SDS011;43435;46.186;9.024;2022-07-30T21:26:19;2.00;;;1.17;;
57609;SDS011;43435;46.186;9.024;2022-07-30T21:28:44;3.23;;;1.30;;
57609;SDS011;43435;46.186;9.024;2022-07-30T21:31:09;1.90;;;1.00;;
57609;SDS011;43435;46.186;9.024;2022-07-30T21:33:35;1.98;;;1.05;;
57609;SDS011;43435;46.186;9.024;2022-07-30T21:36:00;4.40;;;1.00;;
57609;SDS011;43435;46.186;9.024;2022-07-30T21:38:26;1.90;;;1.17;;
57609;SDS011;43435;46.186;9.024;2022-07-30T21:40:51;2.08;;;0.93;;
57609;SDS011;43435;46.186;9.024;2022-07-30T21:43:16;2.90;;;0.90;;
